LTCA Airport Information

Runway Information
Runway 07 Length 5643 ft width 105 ft
Elevation 2927 ft Threshold 0 ft Heading 71
Runway 25 Length 5643 ft Width 105 ft
Elevation 2890 ft Threshold 0 ft Heading 251
Airport Frequencies
Type APP Name APP Frequency 118.1 MHZ
Type TWR Name TWR Frequency 118.1 MHZ
Airport Navaids
Type VOR-DME Name Elazig Frequency 114700 KHZ
Type NDB Name Elazig Frequency 338 KHZ
Airport Weather Information & NOTAM
ADDS - METARS form results

(1733 UTC 18 March 2019)
Data provider http://aviationweather.gov/metar/data/
 
METAR text: LTCA 181650Z 30007KT 9999 FEW035 SCT100 09/M02 Q1018 NOSIG
Conditions at: LTCA (ELAZIG (CIV/MIL), TR) observed 1650 UTC 18 March 2019
Temperature: 9.0°C (48°F)
Dewpoint: -2.0°C (28°F) [RH = 46%]
Pressure (altimeter): 30.06 inches Hg (1018.0 mb)
Winds: from the WNW (300 degrees) at 8 MPH (7 knots; 3.6 m/s)
Visibility: 6 or more miles (10+ km)
Ceiling: at least 12,000 feet AGL
Clouds: few clouds at 3500 feet AGL
scattered clouds at 10000 feet AGL
Weather: no significant weather observed at this time

Forecast for: LTCA (ELAZIG (CIV/MIL), TR)
Text: TAF LTCA 181640Z 1818/1903 30008KT CAVOK
Forecast period: 1800 UTC 18 March 2019 to 0300 UTC 19 March 2019
Forecast type: FROM: standard forecast or significant change
Winds: from the WNW (300 degrees) at 9 MPH (8 knots; 4.1 m/s)
Visibility: 6 or more miles 10+ km)
Ceiling: unknown
Clouds: missing
Weather: NSW  (no significant weather)